sensor_id;sensor_type;location;lat;lon;timestamp;P1;durP1;ratioP1;P2;durP2;ratioP2
46110;SDS011;31849;55.992;37.252;2023-08-20T00:10:31;18.17;;;15.32;;
46110;SDS011;31849;55.992;37.252;2023-08-20T00:15:35;18.63;;;14.90;;
46110;SDS011;31849;55.992;37.252;2023-08-20T00:20:40;20.58;;;15.77;;
46110;SDS011;31849;55.992;37.252;2023-08-20T00:25:47;20.23;;;15.23;;
46110;SDS011;31849;55.992;37.252;2023-08-20T00:35:56;19.45;;;14.73;;
46110;SDS011;31849;55.992;37.252;2023-08-20T00:40:59;19.35;;;15.35;;
46110;SDS011;31849;55.992;37.252;2023-08-20T00:46:03;25.30;;;15.55;;
46110;SDS011;31849;55.992;37.252;2023-08-20T00:51:08;17.60;;;14.60;;
46110;SDS011;31849;55.992;37.252;2023-08-20T00:56:11;20.70;;;16.13;;
46110;SDS011;31849;55.992;37.252;2023-08-20T01:01:15;24.45;;;17.50;;
46110;SDS011;31849;55.992;37.252;2023-08-20T01:11:29;21.95;;;16.52;;
46110;SDS011;31849;55.992;37.252;2023-08-20T01:16:35;21.95;;;16.17;;
46110;SDS011;31849;55.992;37.252;2023-08-20T01:21:43;22.55;;;16.58;;
46110;SDS011;31849;55.992;37.252;2023-08-20T01:27:00;22.45;;;16.40;;
46110;SDS011;31849;55.992;37.252;2023-08-20T01:32:14;21.80;;;16.98;;
46110;SDS011;31849;55.992;37.252;2023-08-20T01:37:19;24.45;;;16.33;;
46110;SDS011;31849;55.992;37.252;2023-08-20T01:42:24;27.60;;;18.60;;
46110;SDS011;31849;55.992;37.252;2023-08-20T01:47:29;22.07;;;17.17;;
46110;SDS011;31849;55.992;37.252;2023-08-20T01:52:32;24.65;;;17.92;;
46110;SDS011;31849;55.992;37.252;2023-08-20T01:57:36;23.85;;;17.15;;
46110;SDS011;31849;55.992;37.252;2023-08-20T02:02:41;21.02;;;17.20;;
46110;SDS011;31849;55.992;37.252;2023-08-20T02:07:45;22.98;;;15.45;;
46110;SDS011;31849;55.992;37.252;2023-08-20T02:12:48;22.67;;;15.80;;
46110;SDS011;31849;55.992;37.252;2023-08-20T02:17:54;21.30;;;17.95;;
46110;SDS011;31849;55.992;37.252;2023-08-20T02:22:59;22.10;;;16.60;;
46110;SDS011;31849;55.992;37.252;2023-08-20T02:28:03;21.02;;;15.48;;
46110;SDS011;31849;55.992;37.252;2023-08-20T02:33:08;20.85;;;15.13;;
46110;SDS011;31849;55.992;37.252;2023-08-20T02:38:11;18.73;;;15.02;;
46110;SDS011;31849;55.992;37.252;2023-08-20T02:48:20;17.92;;;14.07;;
46110;SDS011;31849;55.992;37.252;2023-08-20T02:53:28;19.02;;;14.18;;
46110;SDS011;31849;55.992;37.252;2023-08-20T02:58:32;16.25;;;13.10;;
46110;SDS011;31849;55.992;37.252;2023-08-20T03:03:37;16.95;;;14.07;;
46110;SDS011;31849;55.992;37.252;2023-08-20T03:08:43;18.95;;;13.73;;
46110;SDS011;31849;55.992;37.252;2023-08-20T03:13:47;19.83;;;13.40;;
46110;SDS011;31849;55.992;37.252;2023-08-20T03:18:52;15.40;;;12.88;;
46110;SDS011;31849;55.992;37.252;2023-08-20T03:23:55;19.27;;;13.77;;
46110;SDS011;31849;55.992;37.252;2023-08-20T03:28:59;14.27;;;12.70;;
46110;SDS011;31849;55.992;37.252;2023-08-20T03:34:04;14.50;;;13.10;;
46110;SDS011;31849;55.992;37.252;2023-08-20T03:39:08;16.73;;;13.55;;
46110;SDS011;31849;55.992;37.252;2023-08-20T03:44:11;15.40;;;13.80;;
46110;SDS011;31849;55.992;37.252;2023-08-20T03:49:16;15.98;;;12.13;;
46110;SDS011;31849;55.992;37.252;2023-08-20T03:54:20;16.10;;;12.90;;
46110;SDS011;31849;55.992;37.252;2023-08-20T03:59:23;18.92;;;14.45;;
46110;SDS011;31849;55.992;37.252;2023-08-20T04:04:28;15.73;;;12.90;;
46110;SDS011;31849;55.992;37.252;2023-08-20T04:09:32;15.70;;;13.32;;
46110;SDS011;31849;55.992;37.252;2023-08-20T04:14:36;17.02;;;12.48;;
46110;SDS011;31849;55.992;37.252;2023-08-20T04:19:41;15.88;;;12.25;;
46110;SDS011;31849;55.992;37.252;2023-08-20T04:24:45;17.00;;;13.98;;
46110;SDS011;31849;55.992;37.252;2023-08-20T04:29:49;19.13;;;15.15;;
46110;SDS011;31849;55.992;37.252;2023-08-20T04:34:54;16.63;;;13.93;;
46110;SDS011;31849;55.992;37.252;2023-08-20T04:39:57;18.67;;;15.02;;
46110;SDS011;31849;55.992;37.252;2023-08-20T04:45:01;17.63;;;15.73;;
46110;SDS011;31849;55.992;37.252;2023-08-20T04:50:07;16.88;;;14.55;;
46110;SDS011;31849;55.992;37.252;2023-08-20T04:55:11;18.90;;;15.50;;
46110;SDS011;31849;55.992;37.252;2023-08-20T05:10:23;20.45;;;14.23;;
46110;SDS011;31849;55.992;37.252;2023-08-20T05:15:26;15.88;;;14.15;;
46110;SDS011;31849;55.992;37.252;2023-08-20T05:20:31;14.77;;;12.90;;
46110;SDS011;31849;55.992;37.252;2023-08-20T05:25:35;16.50;;;12.38;;
46110;SDS011;31849;55.992;37.252;2023-08-20T05:30:38;13.57;;;11.98;;
46110;SDS011;31849;55.992;37.252;2023-08-20T05:35:45;14.07;;;11.27;;
46110;SDS011;31849;55.992;37.252;2023-08-20T05:40:48;15.30;;;12.65;;
46110;SDS011;31849;55.992;37.252;2023-08-20T05:45:52;13.30;;;11.90;;
46110;SDS011;31849;55.992;37.252;2023-08-20T05:50:58;12.95;;;10.93;;
46110;SDS011;31849;55.992;37.252;2023-08-20T05:56:01;10.98;;;9.88;;
46110;SDS011;31849;55.992;37.252;2023-08-20T06:01:05;9.95;;;8.95;;
46110;SDS011;31849;55.992;37.252;2023-08-20T06:06:10;9.75;;;8.48;;
46110;SDS011;31849;55.992;37.252;2023-08-20T06:11:14;8.85;;;7.95;;
46110;SDS011;31849;55.992;37.252;2023-08-20T06:16:17;8.88;;;7.50;;
46110;SDS011;31849;55.992;37.252;2023-08-20T06:21:22;9.05;;;7.47;;
46110;SDS011;31849;55.992;37.252;2023-08-20T06:26:26;8.90;;;7.40;;
46110;SDS011;31849;55.992;37.252;2023-08-20T06:31:30;9.45;;;7.47;;
46110;SDS011;31849;55.992;37.252;2023-08-20T06:36:35;7.57;;;6.80;;
46110;SDS011;31849;55.992;37.252;2023-08-20T06:41:38;8.20;;;6.78;;
46110;SDS011;31849;55.992;37.252;2023-08-20T06:46:42;6.40;;;5.80;;
46110;SDS011;31849;55.992;37.252;2023-08-20T06:51:47;7.03;;;6.13;;
46110;SDS011;31849;55.992;37.252;2023-08-20T06:56:51;8.20;;;6.30;;
46110;SDS011;31849;55.992;37.252;2023-08-20T07:01:54;7.32;;;6.47;;
46110;SDS011;31849;55.992;37.252;2023-08-20T07:07:00;6.97;;;6.13;;
46110;SDS011;31849;55.992;37.252;2023-08-20T07:12:06;11.48;;;6.45;;
46110;SDS011;31849;55.992;37.252;2023-08-20T07:17:10;8.82;;;6.05;;
46110;SDS011;31849;55.992;37.252;2023-08-20T07:22:17;7.55;;;5.47;;
46110;SDS011;31849;55.992;37.252;2023-08-20T07:27:21;7.18;;;5.97;;
46110;SDS011;31849;55.992;37.252;2023-08-20T07:32:24;6.45;;;5.13;;
46110;SDS011;31849;55.992;37.252;2023-08-20T07:37:29;6.38;;;5.28;;
46110;SDS011;31849;55.992;37.252;2023-08-20T07:42:33;7.50;;;5.38;;
46110;SDS011;31849;55.992;37.252;2023-08-20T07:47:38;7.50;;;5.50;;
46110;SDS011;31849;55.992;37.252;2023-08-20T07:52:43;7.07;;;5.32;;
46110;SDS011;31849;55.992;37.252;2023-08-20T07:57:47;6.22;;;5.32;;
46110;SDS011;31849;55.992;37.252;2023-08-20T08:02:51;5.63;;;5.00;;
46110;SDS011;31849;55.992;37.252;2023-08-20T08:07:56;6.78;;;5.53;;
46110;SDS011;31849;55.992;37.252;2023-08-20T08:13:00;6.50;;;4.47;;
46110;SDS011;31849;55.992;37.252;2023-08-20T08:18:04;6.50;;;4.00;;
46110;SDS011;31849;55.992;37.252;2023-08-20T08:23:13;5.82;;;4.22;;
46110;SDS011;31849;55.992;37.252;2023-08-20T08:28:17;5.13;;;4.40;;
46110;SDS011;31849;55.992;37.252;2023-08-20T08:33:21;4.72;;;4.20;;
46110;SDS011;31849;55.992;37.252;2023-08-20T08:38:27;5.43;;;4.07;;
46110;SDS011;31849;55.992;37.252;2023-08-20T08:43:30;7.25;;;3.80;;
46110;SDS011;31849;55.992;37.252;2023-08-20T08:48:35;4.88;;;4.47;;
46110;SDS011;31849;55.992;37.252;2023-08-20T08:53:40;4.90;;;4.50;;
46110;SDS011;31849;55.992;37.252;2023-08-20T08:58:46;5.55;;;5.03;;
46110;SDS011;31849;55.992;37.252;2023-08-20T09:03:51;6.35;;;4.60;;
46110;SDS011;31849;55.992;37.252;2023-08-20T09:08:58;5.80;;;5.20;;
46110;SDS011;31849;55.992;37.252;2023-08-20T09:14:08;6.25;;;4.50;;
46110;SDS011;31849;55.992;37.252;2023-08-20T09:19:23;5.63;;;4.30;;
46110;SDS011;31849;55.992;37.252;2023-08-20T09:24:31;5.68;;;3.78;;
46110;SDS011;31849;55.992;37.252;2023-08-20T09:29:43;5.00;;;3.65;;
46110;SDS011;31849;55.992;37.252;2023-08-20T09:34:47;5.32;;;4.20;;
46110;SDS011;31849;55.992;37.252;2023-08-20T09:39:53;6.10;;;4.35;;
46110;SDS011;31849;55.992;37.252;2023-08-20T09:44:59;5.07;;;4.40;;
46110;SDS011;31849;55.992;37.252;2023-08-20T09:50:06;6.20;;;4.35;;
46110;SDS011;31849;55.992;37.252;2023-08-20T09:55:17;4.65;;;4.10;;
46110;SDS011;31849;55.992;37.252;2023-08-20T10:00:24;4.72;;;3.70;;
46110;SDS011;31849;55.992;37.252;2023-08-20T10:05:28;5.18;;;4.10;;
46110;SDS011;31849;55.992;37.252;2023-08-20T10:10:34;5.03;;;4.53;;
46110;SDS011;31849;55.992;37.252;2023-08-20T10:15:39;5.78;;;4.50;;
46110;SDS011;31849;55.992;37.252;2023-08-20T10:20:46;5.07;;;3.97;;
46110;SDS011;31849;55.992;37.252;2023-08-20T10:25:56;5.22;;;4.40;;
46110;SDS011;31849;55.992;37.252;2023-08-20T10:31:11;4.75;;;3.80;;
46110;SDS011;31849;55.992;37.252;2023-08-20T10:36:16;5.50;;;4.30;;
46110;SDS011;31849;55.992;37.252;2023-08-20T10:41:25;6.13;;;5.50;;
46110;SDS011;31849;55.992;37.252;2023-08-20T10:46:30;5.25;;;4.40;;
46110;SDS011;31849;55.992;37.252;2023-08-20T10:51:34;6.35;;;5.07;;
46110;SDS011;31849;55.992;37.252;2023-08-20T10:56:41;6.97;;;6.28;;
46110;SDS011;31849;55.992;37.252;2023-08-20T11:01:46;6.80;;;6.20;;
46110;SDS011;31849;55.992;37.252;2023-08-20T11:06:52;7.95;;;6.47;;
46110;SDS011;31849;55.992;37.252;2023-08-20T11:11:58;6.85;;;6.13;;
46110;SDS011;31849;55.992;37.252;2023-08-20T11:17:02;9.55;;;6.30;;
46110;SDS011;31849;55.992;37.252;2023-08-20T11:22:06;8.82;;;6.43;;
46110;SDS011;31849;55.992;37.252;2023-08-20T11:27:13;6.45;;;5.65;;
46110;SDS011;31849;55.992;37.252;2023-08-20T11:32:17;7.30;;;6.60;;
46110;SDS011;31849;55.992;37.252;2023-08-20T11:37:22;8.68;;;7.35;;
46110;SDS011;31849;55.992;37.252;2023-08-20T11:42:27;11.10;;;7.57;;
46110;SDS011;31849;55.992;37.252;2023-08-20T11:47:37;9.70;;;8.30;;
46110;SDS011;31849;55.992;37.252;2023-08-20T11:52:42;22.25;;;11.20;;
46110;SDS011;31849;55.992;37.252;2023-08-20T11:57:50;12.60;;;10.07;;
46110;SDS011;31849;55.992;37.252;2023-08-20T12:02:57;10.60;;;9.27;;
46110;SDS011;31849;55.992;37.252;2023-08-20T12:08:02;11.90;;;9.88;;
46110;SDS011;31849;55.992;37.252;2023-08-20T12:13:08;11.65;;;10.45;;
46110;SDS011;31849;55.992;37.252;2023-08-20T12:18:12;13.10;;;11.05;;
46110;SDS011;31849;55.992;37.252;2023-08-20T12:23:15;15.57;;;11.45;;
46110;SDS011;31849;55.992;37.252;2023-08-20T12:28:20;13.40;;;11.68;;
46110;SDS011;31849;55.992;37.252;2023-08-20T12:33:24;15.95;;;12.98;;
46110;SDS011;31849;55.992;37.252;2023-08-20T12:38:28;13.63;;;12.23;;
46110;SDS011;31849;55.992;37.252;2023-08-20T12:43:36;12.57;;;11.30;;
46110;SDS011;31849;55.992;37.252;2023-08-20T12:48:40;15.40;;;13.18;;
46110;SDS011;31849;55.992;37.252;2023-08-20T12:53:44;13.82;;;11.25;;
46110;SDS011;31849;55.992;37.252;2023-08-20T13:03:52;11.85;;;10.57;;
46110;SDS011;31849;55.992;37.252;2023-08-20T13:08:56;11.93;;;10.65;;
46110;SDS011;31849;55.992;37.252;2023-08-20T13:14:02;11.65;;;10.45;;
46110;SDS011;31849;55.992;37.252;2023-08-20T13:19:07;13.77;;;10.82;;
46110;SDS011;31849;55.992;37.252;2023-08-20T13:24:11;12.32;;;10.88;;
46110;SDS011;31849;55.992;37.252;2023-08-20T13:29:16;12.00;;;10.80;;
46110;SDS011;31849;55.992;37.252;2023-08-20T13:34:19;12.65;;;11.38;;
46110;SDS011;31849;55.992;37.252;2023-08-20T13:44:28;10.82;;;9.73;;
46110;SDS011;31849;55.992;37.252;2023-08-20T13:49:33;12.88;;;9.95;;
46110;SDS011;31849;55.992;37.252;2023-08-20T13:54:37;11.88;;;10.23;;
46110;SDS011;31849;55.992;37.252;2023-08-20T14:04:45;11.20;;;9.95;;
46110;SDS011;31849;55.992;37.252;2023-08-20T14:09:49;10.40;;;9.30;;
46110;SDS011;31849;55.992;37.252;2023-08-20T14:19:57;10.13;;;9.02;;
46110;SDS011;31849;55.992;37.252;2023-08-20T14:25:01;10.93;;;9.00;;
46110;SDS011;31849;55.992;37.252;2023-08-20T14:30:07;11.68;;;8.90;;
46110;SDS011;31849;55.992;37.252;2023-08-20T14:35:12;12.73;;;11.05;;
46110;SDS011;31849;55.992;37.252;2023-08-20T14:45:21;9.85;;;8.85;;
46110;SDS011;31849;55.992;37.252;2023-08-20T14:50:24;10.13;;;9.00;;
46110;SDS011;31849;55.992;37.252;2023-08-20T14:55:28;9.73;;;8.45;;
46110;SDS011;31849;55.992;37.252;2023-08-20T15:00:33;12.40;;;9.05;;
46110;SDS011;31849;55.992;37.252;2023-08-20T15:05:37;11.90;;;8.18;;
46110;SDS011;31849;55.992;37.252;2023-08-20T15:10:43;10.45;;;8.23;;
46110;SDS011;31849;55.992;37.252;2023-08-20T15:15:53;8.68;;;7.53;;
46110;SDS011;31849;55.992;37.252;2023-08-20T15:20:58;13.68;;;11.02;;
46110;SDS011;31849;55.992;37.252;2023-08-20T15:26:03;8.50;;;6.95;;
46110;SDS011;31849;55.992;37.252;2023-08-20T15:31:08;8.15;;;6.47;;
46110;SDS011;31849;55.992;37.252;2023-08-20T15:36:11;8.25;;;6.22;;
46110;SDS011;31849;55.992;37.252;2023-08-20T15:41:15;6.43;;;5.55;;
46110;SDS011;31849;55.992;37.252;2023-08-20T15:46:21;8.82;;;5.53;;
46110;SDS011;31849;55.992;37.252;2023-08-20T15:51:25;7.32;;;5.63;;
46110;SDS011;31849;55.992;37.252;2023-08-20T15:56:29;6.53;;;5.60;;
46110;SDS011;31849;55.992;37.252;2023-08-20T16:01:34;8.70;;;5.82;;
46110;SDS011;31849;55.992;37.252;2023-08-20T16:06:38;6.00;;;5.40;;
46110;SDS011;31849;55.992;37.252;2023-08-20T16:11:41;9.57;;;5.38;;
46110;SDS011;31849;55.992;37.252;2023-08-20T16:16:46;7.00;;;5.07;;
46110;SDS011;31849;55.992;37.252;2023-08-20T16:21:50;6.15;;;4.75;;
46110;SDS011;31849;55.992;37.252;2023-08-20T16:26:54;6.28;;;4.38;;
46110;SDS011;31849;55.992;37.252;2023-08-20T16:31:59;5.03;;;4.35;;
46110;SDS011;31849;55.992;37.252;2023-08-20T16:37:02;7.25;;;4.50;;
46110;SDS011;31849;55.992;37.252;2023-08-20T16:42:06;7.72;;;5.22;;
46110;SDS011;31849;55.992;37.252;2023-08-20T16:47:12;5.07;;;4.30;;
46110;SDS011;31849;55.992;37.252;2023-08-20T16:52:15;7.93;;;4.43;;
46110;SDS011;31849;55.992;37.252;2023-08-20T16:57:20;4.82;;;3.50;;
46110;SDS011;31849;55.992;37.252;2023-08-20T17:02:25;4.35;;;3.50;;
46110;SDS011;31849;55.992;37.252;2023-08-20T17:07:29;5.70;;;3.50;;
46110;SDS011;31849;55.992;37.252;2023-08-20T17:12:33;5.07;;;2.92;;
46110;SDS011;31849;55.992;37.252;2023-08-20T17:17:38;3.78;;;2.95;;
46110;SDS011;31849;55.992;37.252;2023-08-20T17:22:42;5.72;;;3.47;;
46110;SDS011;31849;55.992;37.252;2023-08-20T17:27:45;5.18;;;3.33;;
46110;SDS011;31849;55.992;37.252;2023-08-20T17:32:50;4.65;;;3.17;;
46110;SDS011;31849;55.992;37.252;2023-08-20T17:37:54;5.95;;;3.03;;
46110;SDS011;31849;55.992;37.252;2023-08-20T17:42:58;4.30;;;3.10;;
46110;SDS011;31849;55.992;37.252;2023-08-20T17:48:04;6.35;;;2.72;;
46110;SDS011;31849;55.992;37.252;2023-08-20T17:53:08;4.35;;;3.10;;
46110;SDS011;31849;55.992;37.252;2023-08-20T17:58:12;5.82;;;3.13;;
46110;SDS011;31849;55.992;37.252;2023-08-20T18:03:17;5.17;;;3.03;;
46110;SDS011;31849;55.992;37.252;2023-08-20T18:08:22;4.65;;;2.90;;
46110;SDS011;31849;55.992;37.252;2023-08-20T18:13:25;4.88;;;3.13;;
46110;SDS011;31849;55.992;37.252;2023-08-20T18:18:33;5.70;;;4.15;;
46110;SDS011;31849;55.992;37.252;2023-08-20T18:23:37;5.38;;;3.50;;
46110;SDS011;31849;55.992;37.252;2023-08-20T18:28:41;5.57;;;4.00;;
46110;SDS011;31849;55.992;37.252;2023-08-20T18:33:46;10.93;;;3.90;;
46110;SDS011;31849;55.992;37.252;2023-08-20T18:38:49;5.80;;;3.28;;
46110;SDS011;31849;55.992;37.252;2023-08-20T18:43:53;8.30;;;3.30;;
46110;SDS011;31849;55.992;37.252;2023-08-20T18:48:58;5.82;;;3.20;;
46110;SDS011;31849;55.992;37.252;2023-08-20T18:54:02;3.97;;;2.65;;
46110;SDS011;31849;55.992;37.252;2023-08-20T18:59:05;3.97;;;2.45;;
46110;SDS011;31849;55.992;37.252;2023-08-20T19:04:13;3.13;;;2.40;;
46110;SDS011;31849;55.992;37.252;2023-08-20T19:09:17;2.95;;;2.30;;
46110;SDS011;31849;55.992;37.252;2023-08-20T19:14:21;3.85;;;2.45;;
46110;SDS011;31849;55.992;37.252;2023-08-20T19:19:26;5.60;;;2.45;;
46110;SDS011;31849;55.992;37.252;2023-08-20T19:24:30;3.25;;;2.60;;
46110;SDS011;31849;55.992;37.252;2023-08-20T19:29:33;3.63;;;2.50;;
46110;SDS011;31849;55.992;37.252;2023-08-20T19:34:38;3.33;;;2.20;;
46110;SDS011;31849;55.992;37.252;2023-08-20T19:39:42;6.35;;;2.30;;
46110;SDS011;31849;55.992;37.252;2023-08-20T19:44:47;3.10;;;2.13;;
46110;SDS011;31849;55.992;37.252;2023-08-20T19:49:53;4.15;;;2.15;;
46110;SDS011;31849;55.992;37.252;2023-08-20T19:54:56;4.57;;;2.55;;
46110;SDS011;31849;55.992;37.252;2023-08-20T20:00:00;7.87;;;2.83;;
46110;SDS011;31849;55.992;37.252;2023-08-20T20:05:07;4.53;;;2.45;;
46110;SDS011;31849;55.992;37.252;2023-08-20T20:10:12;3.00;;;2.20;;
46110;SDS011;31849;55.992;37.252;2023-08-20T20:15:16;5.03;;;2.65;;
46110;SDS011;31849;55.992;37.252;2023-08-20T20:20:21;5.35;;;2.20;;
46110;SDS011;31849;55.992;37.252;2023-08-20T20:25:25;4.50;;;2.17;;
46110;SDS011;31849;55.992;37.252;2023-08-20T20:30:29;3.30;;;2.45;;
46110;SDS011;31849;55.992;37.252;2023-08-20T20:35:34;6.30;;;2.27;;
46110;SDS011;31849;55.992;37.252;2023-08-20T20:40:41;3.97;;;2.22;;
46110;SDS011;31849;55.992;37.252;2023-08-20T20:45:45;2.90;;;2.22;;
46110;SDS011;31849;55.992;37.252;2023-08-20T20:50:50;4.65;;;2.20;;
46110;SDS011;31849;55.992;37.252;2023-08-20T20:55:56;3.10;;;2.10;;
46110;SDS011;31849;55.992;37.252;2023-08-20T21:01:00;3.17;;;2.10;;
46110;SDS011;31849;55.992;37.252;2023-08-20T21:06:06;3.58;;;1.95;;
46110;SDS011;31849;55.992;37.252;2023-08-20T21:11:09;3.95;;;2.00;;
46110;SDS011;31849;55.992;37.252;2023-08-20T21:16:13;3.23;;;2.20;;
46110;SDS011;31849;55.992;37.252;2023-08-20T21:21:18;3.17;;;2.37;;
46110;SDS011;31849;55.992;37.252;2023-08-20T21:26:22;5.85;;;2.00;;
46110;SDS011;31849;55.992;37.252;2023-08-20T21:31:25;5.13;;;2.00;;
46110;SDS011;31849;55.992;37.252;2023-08-20T21:36:30;3.60;;;1.90;;
46110;SDS011;31849;55.992;37.252;2023-08-20T21:41:34;6.78;;;2.30;;
46110;SDS011;31849;55.992;37.252;2023-08-20T21:46:38;3.67;;;2.40;;
46110;SDS011;31849;55.992;37.252;2023-08-20T21:51:45;3.60;;;2.10;;
46110;SDS011;31849;55.992;37.252;2023-08-20T21:56:49;3.67;;;1.75;;
46110;SDS011;31849;55.992;37.252;2023-08-20T22:01:53;3.58;;;1.98;;
46110;SDS011;31849;55.992;37.252;2023-08-20T22:06:58;3.00;;;2.07;;
46110;SDS011;31849;55.992;37.252;2023-08-20T22:12:03;6.10;;;2.40;;
46110;SDS011;31849;55.992;37.252;2023-08-20T22:17:08;4.07;;;2.15;;
46110;SDS011;31849;55.992;37.252;2023-08-20T22:22:13;4.57;;;2.40;;
46110;SDS011;31849;55.992;37.252;2023-08-20T22:27:16;3.05;;;2.10;;
46110;SDS011;31849;55.992;37.252;2023-08-20T22:32:20;3.50;;;2.10;;
46110;SDS011;31849;55.992;37.252;2023-08-20T22:37:25;5.10;;;2.63;;
46110;SDS011;31849;55.992;37.252;2023-08-20T22:42:29;4.18;;;2.22;;
46110;SDS011;31849;55.992;37.252;2023-08-20T22:47:33;6.00;;;2.53;;
46110;SDS011;31849;55.992;37.252;2023-08-20T22:52:40;4.50;;;3.10;;
46110;SDS011;31849;55.992;37.252;2023-08-20T22:57:43;5.50;;;2.80;;
46110;SDS011;31849;55.992;37.252;2023-08-20T23:02:47;4.33;;;3.10;;
46110;SDS011;31849;55.992;37.252;2023-08-20T23:07:53;6.85;;;3.55;;
46110;SDS011;31849;55.992;37.252;2023-08-20T23:12:57;7.40;;;3.90;;
46110;SDS011;31849;55.992;37.252;2023-08-20T23:18:01;5.43;;;4.03;;
46110;SDS011;31849;55.992;37.252;2023-08-20T23:23:06;6.53;;;4.07;;
46110;SDS011;31849;55.992;37.252;2023-08-20T23:28:09;5.45;;;3.90;;
46110;SDS011;31849;55.992;37.252;2023-08-20T23:33:13;7.05;;;4.38;;
46110;SDS011;31849;55.992;37.252;2023-08-20T23:38:18;4.60;;;3.77;;
46110;SDS011;31849;55.992;37.252;2023-08-20T23:43:22;6.85;;;4.07;;
46110;SDS011;31849;55.992;37.252;2023-08-20T23:48:25;4.87;;;3.50;;
46110;SDS011;31849;55.992;37.252;2023-08-20T23:53:30;7.43;;;4.03;;
46110;SDS011;31849;55.992;37.252;2023-08-20T23:58:34;8.10;;;4.00;;
